createdAt,value
2023-10-26T00:01:20.644Z,93900.78
2023-10-26T00:04:23.162Z,93922.44
2023-10-26T00:07:26.809Z,93939.88
2023-10-26T00:10:28.669Z,93933.56
2023-10-26T00:13:30.557Z,93939.31
2023-10-26T00:16:33.211Z,93928.91
2023-10-26T00:19:35.712Z,93917.91
2023-10-26T00:22:38.994Z,93913.25
2023-10-26T00:25:40.905Z,93921.78
2023-10-26T00:28:42.851Z,93927.44
2023-10-26T00:31:44.563Z,93926.84
2023-10-26T00:34:46.881Z,93912.88
2023-10-26T00:37:50.246Z,93915.50
2023-10-26T00:40:52.772Z,93911.50
2023-10-26T00:43:54.833Z,93927.41
2023-10-26T00:46:56.926Z,93932.38
2023-10-26T00:50:00.670Z,93941.53
2023-10-26T00:53:04.144Z,93932.44
2023-10-26T00:56:06.948Z,93929.63
2023-10-26T00:59:10.682Z,93933.09
2023-10-26T01:02:13.800Z,93921.00
2023-10-26T01:05:15.966Z,93935.19
2023-10-26T01:08:20.052Z,93922.00
2023-10-26T01:11:22.661Z,93917.31
2023-10-26T01:14:24.853Z,93924.16
2023-10-26T01:17:26.751Z,93915.28
2023-10-26T01:20:28.726Z,93922.22
2023-10-26T01:23:32.282Z,93923.31
2023-10-26T01:26:34.484Z,93920.94
2023-10-26T01:29:36.728Z,93931.44
2023-10-26T01:32:38.985Z,93920.94
2023-10-26T01:35:41.244Z,93918.22
2023-10-26T01:38:44.432Z,93912.03
2023-10-26T01:41:47.009Z,93906.84
2023-10-26T01:44:49.603Z,93901.19
2023-10-26T01:47:51.840Z,93891.53
2023-10-26T01:50:54.026Z,93885.06
2023-10-26T01:53:57.443Z,93889.72
2023-10-26T01:56:59.317Z,93890.00
2023-10-26T02:00:01.153Z,93879.06
2023-10-26T02:03:03.174Z,93883.97
2023-10-26T08:45:24.339Z,93909.00
2023-10-26T08:48:29.647Z,93912.50
2023-10-26T08:51:31.463Z,93908.19
2023-10-26T08:54:33.184Z,93903.78
2023-10-26T08:57:34.951Z,93904.22
2023-10-26T09:00:38.447Z,93902.19
2023-10-26T09:03:40.222Z,93903.69
2023-10-26T09:06:45.787Z,93907.09
2023-10-26T09:09:47.677Z,93902.88
2023-10-26T09:12:59.141Z,93897.88
2023-10-26T09:16:03.104Z,93905.25
2023-10-26T09:19:05.114Z,93911.81
2023-10-26T09:22:07.033Z,93897.72
2023-10-26T09:25:10.859Z,93893.91
2023-10-26T09:28:12.881Z,93898.50
2023-10-26T09:31:16.047Z,93901.78
2023-10-26T09:34:17.872Z,93897.47
2023-10-26T09:37:19.680Z,93882.28
2023-10-26T09:40:22.363Z,93894.59
2023-10-26T09:43:24.393Z,93887.84
2023-10-26T09:46:27.868Z,93874.81
2023-10-26T09:49:29.711Z,93894.69
2023-10-26T09:52:31.889Z,93903.22
2023-10-26T09:55:34.142Z,93901.19
2023-10-26T09:58:39.899Z,93897.97
2023-10-26T10:01:43.223Z,93898.28
2023-10-26T10:04:45.957Z,93890.19
2023-10-26T10:07:48.061Z,93883.84
2023-10-26T10:11:15.099Z,93894.91
2023-10-26T10:14:54.564Z,93901.59
2023-10-26T10:18:06.436Z,93922.13
2023-10-26T10:21:36.728Z,93931.75
2023-10-26T10:24:50.597Z,93927.47
2023-10-26T10:28:11.094Z,93922.72
2023-10-26T10:31:22.436Z,93914.94
2023-10-26T10:34:29.521Z,93919.75
2023-10-26T10:37:33.098Z,93905.50
2023-10-26T10:40:35.041Z,93900.94
2023-10-26T10:43:37.637Z,93903.81
2023-10-26T10:46:39.458Z,93906.78
2023-10-26T10:49:41.468Z,93903.81
2023-10-26T10:52:44.691Z,93907.53
2023-10-26T10:55:46.522Z,93902.72
2023-10-26T10:58:48.317Z,93890.88
2023-10-26T11:01:51.345Z,93879.41
2023-10-26T11:05:02.297Z,93873.16
2023-10-26T11:08:09.682Z,93872.22
2023-10-26T11:11:24.646Z,93871.53
2023-10-26T11:14:26.344Z,93853.06
2023-10-26T11:17:30.162Z,93845.84
2023-10-26T11:20:36.985Z,93836.13
2023-10-26T11:23:40.134Z,93833.31
2023-10-26T11:26:41.875Z,93827.13
2023-10-26T11:29:45.436Z,93827.03
2023-10-26T11:32:47.277Z,93829.22
2023-10-26T11:35:49.025Z,93844.91
2023-10-26T11:38:52.245Z,93857.25
2023-10-26T11:41:55.114Z,93846.03
2023-10-26T11:44:59.912Z,93858.97
2023-10-26T11:48:02.169Z,93864.72
2023-10-26T11:51:04.193Z,93857.88
2023-10-26T11:54:13.886Z,93861.34
2023-10-26T11:57:15.697Z,93855.81
2023-10-26T12:00:18.143Z,93852.50
2023-10-26T12:03:20.410Z,93841.69
2023-10-26T12:06:22.207Z,93834.66
2023-10-26T12:09:25.328Z,93829.94
2023-10-26T12:12:27.124Z,93821.94
2023-10-26T12:15:29.268Z,93820.56
2023-10-26T12:18:31.156Z,93816.91
2023-10-26T12:21:32.936Z,93802.59
2023-10-26T12:24:36.162Z,93793.50
2023-10-26T12:28:19.655Z,93809.19
2023-10-26T12:31:00.382Z,93806.28
2023-10-26T12:34:02.205Z,93809.97
2023-10-26T12:37:04.681Z,93813.75
2023-10-26T12:40:09.140Z,93810.50
2023-10-26T12:43:10.932Z,93809.00
2023-10-26T12:46:13.669Z,93802.94
2023-10-26T12:49:15.504Z,93794.25
2023-10-26T12:52:17.381Z,93779.31
2023-10-26T12:55:20.569Z,93778.13
2023-10-26T12:58:22.298Z,93784.66
2023-10-26T13:01:24.160Z,93791.03
2023-10-26T13:04:26.107Z,93793.19
2023-10-26T13:07:28.025Z,93791.88
2023-10-26T13:10:31.256Z,93790.19
2023-10-26T13:13:33.082Z,93790.69
2023-10-26T13:16:50.411Z,93797.53
2023-10-26T13:19:56.606Z,93797.75
2023-10-26T13:22:58.559Z,93793.75
2023-10-26T13:26:01.927Z,93800.38
2023-10-26T13:29:03.779Z,93790.81
2023-10-26T13:32:05.886Z,93785.53
2023-10-26T13:35:08.377Z,93788.13
2023-10-26T13:38:10.299Z,93788.31
2023-10-26T13:41:13.441Z,93794.84
2023-10-26T13:44:15.274Z,93784.97
2023-10-26T13:47:17.094Z,93790.13
2023-10-26T13:50:18.903Z,93783.50
2023-10-26T13:53:20.736Z,93771.34
2023-10-26T13:56:23.963Z,93766.47
2023-10-26T13:59:25.903Z,93760.72
2023-10-26T14:02:27.828Z,93753.84
2023-10-26T14:05:30.887Z,93750.28
2023-10-26T14:08:33.400Z,93744.84
2023-10-26T14:11:36.532Z,93755.75
2023-10-26T14:14:38.380Z,93754.19
2023-10-26T14:17:40.179Z,93758.75
2023-10-26T14:20:41.953Z,93762.84
2023-10-26T14:23:43.685Z,93758.75
2023-10-26T14:26:46.831Z,93745.19
2023-10-26T14:29:48.647Z,93751.59
2023-10-26T14:32:50.509Z,93752.63
2023-10-26T14:35:52.607Z,93763.22
2023-10-26T14:38:54.586Z,93754.44
2023-10-26T14:41:57.886Z,93753.69
2023-10-26T14:44:59.622Z,93755.16
2023-10-26T14:48:01.447Z,93751.66
2023-10-26T14:51:03.618Z,93763.56
2023-10-26T14:54:05.484Z,93764.97
2023-10-26T14:57:08.570Z,93773.56
2023-10-26T15:00:11.052Z,93783.94
2023-10-26T15:03:12.878Z,93777.31
2023-10-26T15:06:14.667Z,93760.19
2023-10-26T15:10:20.002Z,93749.72
2023-10-26T15:12:39.717Z,93731.38
2023-10-26T15:15:42.095Z,93724.19
2023-10-26T15:18:43.929Z,93713.22
2023-10-26T15:21:45.864Z,93714.84
2023-10-26T15:24:47.672Z,93729.72
2023-10-26T15:27:50.900Z,93736.34
2023-10-26T15:30:52.779Z,93737.75
2023-10-26T15:33:55.518Z,93745.69
2023-10-26T15:36:59.703Z,93732.81
2023-10-26T15:40:01.842Z,93733.06
2023-10-26T15:43:05.165Z,93735.59
2023-10-26T15:46:07.477Z,93739.75
2023-10-26T15:49:31.317Z,93728.25
2023-10-26T15:52:32.241Z,93723.66
2023-10-26T15:55:34.046Z,93718.28
2023-10-26T15:58:37.815Z,93710.03
2023-10-26T16:01:40.090Z,93706.75
2023-10-26T16:04:42.332Z,93699.22
2023-10-26T16:07:44.264Z,93699.50
2023-10-26T16:10:46.210Z,93696.38
2023-10-26T16:13:49.537Z,93684.88
2023-10-26T16:16:51.591Z,93684.00
2023-10-26T16:19:53.815Z,93672.72
2023-10-26T16:22:56.459Z,93682.94
2023-10-26T16:25:59.110Z,93682.94
2023-10-26T16:29:03.146Z,93680.25
2023-10-26T16:32:06.742Z,93691.38
2023-10-26T16:35:10.227Z,93699.63
2023-10-26T16:38:13.606Z,93689.25
2023-10-26T16:41:17.011Z,93698.56
2023-10-26T16:44:23.224Z,93704.09
2023-10-26T16:47:27.564Z,93708.31
2023-10-26T16:50:32.302Z,93708.75
2023-10-26T16:53:36.017Z,93715.81
2023-10-26T16:56:40.832Z,93701.75
2023-10-26T16:59:48.908Z,93700.88
2023-10-26T17:02:53.955Z,93696.44
2023-10-26T17:06:00.548Z,93696.13
2023-10-26T17:09:04.132Z,93694.06
2023-10-26T17:12:08.656Z,93691.03
2023-10-26T17:15:14.548Z,93687.56
2023-10-26T17:18:18.494Z,93683.78
2023-10-26T17:21:22.386Z,93681.09
2023-10-26T17:24:26.309Z,93668.09
2023-10-26T17:27:31.748Z,93671.84
2023-10-26T17:30:37.349Z,93670.25
2023-10-26T17:33:41.237Z,93661.78
2023-10-26T17:36:45.235Z,93671.13
2023-10-26T17:39:49.794Z,93676.41
2023-10-26T17:42:55.011Z,93675.13
2023-10-26T17:46:02.507Z,93686.84
2023-10-26T17:49:06.537Z,93684.56
2023-10-26T17:52:10.635Z,93686.97
2023-10-26T17:55:15.828Z,93668.78
2023-10-26T17:58:19.802Z,93676.56
2023-10-26T18:01:25.636Z,93685.03
2023-10-26T18:04:31.140Z,93690.03
2023-10-26T18:07:36.543Z,93686.88
2023-10-26T18:10:42.837Z,93685.38
2023-10-26T18:13:48.487Z,93682.22
2023-10-26T18:16:55.990Z,93683.31
2023-10-26T18:20:00.377Z,93690.13
2023-10-26T18:23:04.279Z,93692.44
2023-10-26T18:26:10.548Z,93685.81
2023-10-26T18:29:14.321Z,93691.97
2023-10-26T18:32:21.562Z,93680.09
2023-10-26T18:35:27.815Z,93678.69
2023-10-26T18:38:32.302Z,93675.97
2023-10-26T18:41:36.213Z,93667.53
2023-10-26T18:44:40.125Z,93674.78
2023-10-26T18:47:46.852Z,93672.94
2023-10-26T18:50:52.521Z,93663.41
2023-10-26T18:53:58.016Z,93666.75
2023-10-26T18:57:03.170Z,93675.53
2023-10-26T19:00:08.546Z,93663.31
2023-10-26T19:03:19.390Z,93661.56
2023-10-26T19:06:23.137Z,93666.75
2023-10-26T19:09:28.253Z,93658.44
2023-10-26T19:12:33.039Z,93653.91
2023-10-26T19:15:37.325Z,93650.81
2023-10-26T19:18:51.516Z,93644.63
2023-10-26T19:21:55.622Z,93643.22
2023-10-26T19:25:01.874Z,93651.06
2023-10-26T19:28:06.118Z,93656.94
2023-10-26T19:31:11.391Z,93652.19
2023-10-26T19:34:17.302Z,93647.44
2023-10-26T19:37:23.032Z,93650.69
2023-10-26T19:40:27.974Z,93654.78
2023-10-26T19:43:35.374Z,93654.78
2023-10-26T19:46:40.620Z,93653.16
2023-10-26T19:49:47.914Z,93648.28
2023-10-26T19:52:51.929Z,93633.06
2023-10-26T19:55:55.906Z,93633.91
2023-10-26T19:59:01.363Z,93639.88
2023-10-26T20:02:05.903Z,93632.06
2023-10-26T20:05:15.116Z,93621.84
2023-10-26T20:08:18.844Z,93619.69
2023-10-26T20:11:22.238Z,93611.84
2023-10-26T20:14:26.189Z,93612.00
2023-10-26T20:17:29.743Z,93608.81
2023-10-26T20:20:35.003Z,93599.44
2023-10-26T20:23:38.513Z,93596.56
2023-10-26T20:26:42.546Z,93594.53
2023-10-26T20:29:46.119Z,93583.19
2023-10-26T20:32:49.758Z,93592.34
2023-10-26T20:35:55.378Z,93586.88
2023-10-26T20:38:58.469Z,93583.50
2023-10-26T20:42:00.865Z,93582.75
2023-10-26T20:45:03.036Z,93578.78
2023-10-26T20:48:05.929Z,93582.81
2023-10-26T20:51:11.302Z,93578.25
2023-10-26T20:54:21.490Z,93569.50
2023-10-26T20:57:23.373Z,93575.28
2023-10-26T21:00:25.270Z,93581.16
2023-10-26T21:03:27.061Z,93585.06
2023-10-26T21:06:30.217Z,93584.03
2023-10-26T21:09:33.210Z,93583.09
2023-10-26T21:12:35.106Z,93573.59
2023-10-26T21:15:37.115Z,93572.75
2023-10-26T21:18:38.976Z,93566.81
2023-10-26T21:21:42.126Z,93568.31
2023-10-26T21:24:46.602Z,93561.09
2023-10-26T21:27:48.405Z,93557.94
2023-10-26T21:30:50.302Z,93547.25
2023-10-26T21:33:52.105Z,93546.38
2023-10-26T21:36:55.323Z,93540.09
2023-10-26T21:39:57.413Z,93537.72
2023-10-26T21:42:59.324Z,93538.81
2023-10-26T21:46:05.255Z,93540.97
2023-10-26T21:49:07.205Z,93543.78
2023-10-26T21:52:10.371Z,93539.50
2023-10-26T21:55:12.204Z,93536.94
2023-10-26T21:58:13.996Z,93538.69
2023-10-26T22:01:15.904Z,93537.31
2023-10-26T22:04:22.486Z,93528.69
2023-10-26T22:07:25.875Z,93514.94
2023-10-26T22:10:27.725Z,93511.47
2023-10-26T22:13:29.634Z,93510.16
2023-10-26T22:16:31.501Z,93501.31
2023-10-26T22:19:33.642Z,93495.47
2023-10-26T22:22:37.194Z,93487.38
2023-10-26T22:25:39.020Z,93488.25
2023-10-26T22:28:40.765Z,93475.16
2023-10-26T22:31:42.608Z,93475.59
2023-10-26T22:34:44.389Z,93468.81
2023-10-26T22:37:47.671Z,93463.91
2023-10-26T22:40:49.423Z,93468.34
2023-10-26T22:43:51.192Z,93462.97
2023-10-26T22:46:52.928Z,93463.19
2023-10-26T22:49:55.576Z,93454.94
2023-10-26T22:52:58.796Z,93452.47
2023-10-26T22:56:01.174Z,93449.53
2023-10-26T22:59:02.975Z,93433.84
2023-10-26T23:02:04.712Z,93435.03
2023-10-26T23:05:06.798Z,93420.56
2023-10-26T23:08:12.954Z,93410.22
2023-10-26T23:11:14.918Z,93414.31
2023-10-26T23:14:16.759Z,93407.19
2023-10-26T23:17:18.485Z,93414.66
2023-10-26T23:20:20.216Z,93411.72
2023-10-26T23:23:23.428Z,93411.63
2023-10-26T23:26:25.209Z,93406.66
2023-10-26T23:29:26.988Z,93408.50
2023-10-26T23:32:28.786Z,93405.03
2023-10-26T23:35:30.563Z,93398.53
2023-10-26T23:38:33.988Z,93384.72
2023-10-26T23:41:35.737Z,93373.56
2023-10-26T23:44:37.463Z,93376.59
2023-10-26T23:47:39.291Z,93375.88
2023-10-26T23:50:41.119Z,93356.38
2023-10-26T23:53:44.220Z,93352.09
2023-10-26T23:56:45.952Z,93350.28
2023-10-26T23:59:47.710Z,93345.28
